sensor_id;sensor_type;location;lat;lon;timestamp;temperature;humidity
52531;DHT22;38441;52.894;6.040;2023-04-01T00:01:48;12.30;99.90
52531;DHT22;38441;52.894;6.040;2023-04-01T00:04:14;11.50;99.90
52531;DHT22;38441;52.894;6.040;2023-04-01T00:06:41;11.00;99.90
52531;DHT22;38441;52.894;6.040;2023-04-01T00:09:06;11.50;99.90
52531;DHT22;38441;52.894;6.040;2023-04-01T00:11:32;9.90;99.90
52531;DHT22;38441;52.894;6.040;2023-04-01T00:13:58;9.40;99.90
52531;DHT22;38441;52.894;6.040;2023-04-01T00:16:23;9.00;99.90
52531;DHT22;38441;52.894;6.040;2023-04-01T00:18:50;9.90;99.90
52531;DHT22;38441;52.894;6.040;2023-04-01T00:21:16;10.10;99.90
52531;DHT22;38441;52.894;6.040;2023-04-01T00:23:42;9.40;99.90
52531;DHT22;38441;52.894;6.040;2023-04-01T00:26:07;11.00;99.90
52531;DHT22;38441;52.894;6.040;2023-04-01T00:28:34;11.10;99.90
52531;DHT22;38441;52.894;6.040;2023-04-01T00:31:05;11.80;99.90
52531;DHT22;38441;52.894;6.040;2023-04-01T00:33:31;9.90;99.90
52531;DHT22;38441;52.894;6.040;2023-04-01T00:36:15;10.00;99.90
52531;DHT22;38441;52.894;6.040;2023-04-01T00:38:42;9.00;99.90
52531;DHT22;38441;52.894;6.040;2023-04-01T00:41:09;8.90;99.90
52531;DHT22;38441;52.894;6.040;2023-04-01T00:43:39;9.00;99.90
52531;DHT22;38441;52.894;6.040;2023-04-01T00:46:05;11.80;99.90
52531;DHT22;38441;52.894;6.040;2023-04-01T00:48:34;8.70;99.90
52531;DHT22;38441;52.894;6.040;2023-04-01T00:53:28;10.00;99.90
52531;DHT22;38441;52.894;6.040;2023-04-01T00:56:12;11.40;99.90
52531;DHT22;38441;52.894;6.040;2023-04-01T00:58:42;9.80;99.90
52531;DHT22;38441;52.894;6.040;2023-04-01T01:01:08;9.60;99.90
52531;DHT22;38441;52.894;6.040;2023-04-01T01:03:34;10.00;99.90
52531;DHT22;38441;52.894;6.040;2023-04-01T01:06:50;9.90;99.90
52531;DHT22;38441;52.894;6.040;2023-04-01T01:11:50;11.80;99.90
52531;DHT22;38441;52.894;6.040;2023-04-01T01:17:12;9.90;99.90
52531;DHT22;38441;52.894;6.040;2023-04-01T01:20:04;9.70;99.90
52531;DHT22;38441;52.894;6.040;2023-04-01T01:25:13;12.00;99.90
52531;DHT22;38441;52.894;6.040;2023-04-01T01:27:51;10.70;99.90
52531;DHT22;38441;52.894;6.040;2023-04-01T01:33:29;9.80;99.90
52531;DHT22;38441;52.894;6.040;2023-04-01T01:35:59;9.30;99.90
52531;DHT22;38441;52.894;6.040;2023-04-01T01:38:29;11.00;99.90
52531;DHT22;38441;52.894;6.040;2023-04-01T01:40:57;11.00;99.90
52531;DHT22;38441;52.894;6.040;2023-04-01T01:43:26;10.80;99.90
52531;DHT22;38441;52.894;6.040;2023-04-01T01:45:57;9.90;99.90
52531;DHT22;38441;52.894;6.040;2023-04-01T01:48:24;9.90;99.90
52531;DHT22;38441;52.894;6.040;2023-04-01T01:50:52;9.70;99.90
52531;DHT22;38441;52.894;6.040;2023-04-01T01:53:18;10.90;99.90
52531;DHT22;38441;52.894;6.040;2023-04-01T01:55:45;9.70;99.90
52531;DHT22;38441;52.894;6.040;2023-04-01T01:58:32;9.90;99.90
52531;DHT22;38441;52.894;6.040;2023-04-01T02:01:07;10.00;99.90
52531;DHT22;38441;52.894;6.040;2023-04-01T02:03:36;10.00;99.90
52531;DHT22;38441;52.894;6.040;2023-04-01T02:06:05;9.80;99.90
52531;DHT22;38441;52.894;6.040;2023-04-01T02:08:36;9.90;99.90
52531;DHT22;38441;52.894;6.040;2023-04-01T02:11:10;9.80;99.90
52531;DHT22;38441;52.894;6.040;2023-04-01T02:13:38;10.70;99.90
52531;DHT22;38441;52.894;6.040;2023-04-01T02:16:18;10.60;99.90
52531;DHT22;38441;52.894;6.040;2023-04-01T02:18:48;9.90;99.90
52531;DHT22;38441;52.894;6.040;2023-04-01T02:21:17;11.20;99.90
52531;DHT22;38441;52.894;6.040;2023-04-01T02:23:45;9.30;99.90
52531;DHT22;38441;52.894;6.040;2023-04-01T02:26:13;11.10;99.90
52531;DHT22;38441;52.894;6.040;2023-04-01T02:28:40;8.90;99.90
52531;DHT22;38441;52.894;6.040;2023-04-01T02:31:07;9.90;99.90
52531;DHT22;38441;52.894;6.040;2023-04-01T02:33:34;9.80;99.90
52531;DHT22;38441;52.894;6.040;2023-04-01T02:36:00;8.80;99.90
52531;DHT22;38441;52.894;6.040;2023-04-01T02:38:25;10.00;99.90
52531;DHT22;38441;52.894;6.040;2023-04-01T02:40:59;10.70;99.90
52531;DHT22;38441;52.894;6.040;2023-04-01T02:43:27;10.00;99.90
52531;DHT22;38441;52.894;6.040;2023-04-01T02:45:53;8.60;99.90
52531;DHT22;38441;52.894;6.040;2023-04-01T02:48:18;10.00;99.90
52531;DHT22;38441;52.894;6.040;2023-04-01T02:50:44;8.60;99.90
52531;DHT22;38441;52.894;6.040;2023-04-01T02:53:09;9.20;99.90
52531;DHT22;38441;52.894;6.040;2023-04-01T02:55:35;11.30;99.90
52531;DHT22;38441;52.894;6.040;2023-04-01T02:58:01;9.80;99.90
52531;DHT22;38441;52.894;6.040;2023-04-01T03:00:27;9.80;99.90
52531;DHT22;38441;52.894;6.040;2023-04-01T03:02:53;11.10;99.90
52531;DHT22;38441;52.894;6.040;2023-04-01T03:05:19;11.20;99.90
52531;DHT22;38441;52.894;6.040;2023-04-01T03:07:45;7.80;99.90
52531;DHT22;38441;52.894;6.040;2023-04-01T03:10:11;10.70;99.90
52531;DHT22;38441;52.894;6.040;2023-04-01T03:12:37;11.80;99.90
52531;DHT22;38441;52.894;6.040;2023-04-01T03:15:03;10.30;99.90
52531;DHT22;38441;52.894;6.040;2023-04-01T03:17:28;10.00;99.90
52531;DHT22;38441;52.894;6.040;2023-04-01T03:19:54;9.00;99.90
52531;DHT22;38441;52.894;6.040;2023-04-01T03:22:20;10.00;99.90
52531;DHT22;38441;52.894;6.040;2023-04-01T03:24:49;9.80;99.90
52531;DHT22;38441;52.894;6.040;2023-04-01T03:27:15;9.30;99.90
52531;DHT22;38441;52.894;6.040;2023-04-01T03:29:41;9.10;99.90
52531;DHT22;38441;52.894;6.040;2023-04-01T03:32:07;9.90;99.90
52531;DHT22;38441;52.894;6.040;2023-04-01T03:34:32;11.20;99.90
52531;DHT22;38441;52.894;6.040;2023-04-01T03:36:58;8.80;99.90
52531;DHT22;38441;52.894;6.040;2023-04-01T03:39:24;9.10;99.90
52531;DHT22;38441;52.894;6.040;2023-04-01T03:41:50;9.30;99.90
52531;DHT22;38441;52.894;6.040;2023-04-01T03:44:16;9.00;99.90
52531;DHT22;38441;52.894;6.040;2023-04-01T03:46:41;10.70;99.90
52531;DHT22;38441;52.894;6.040;2023-04-01T03:49:08;11.20;99.90
52531;DHT22;38441;52.894;6.040;2023-04-01T03:51:42;11.10;99.90
52531;DHT22;38441;52.894;6.040;2023-04-01T03:54:09;8.90;99.90
52531;DHT22;38441;52.894;6.040;2023-04-01T03:56:35;8.80;99.90
52531;DHT22;38441;52.894;6.040;2023-04-01T03:59:06;9.20;99.90
52531;DHT22;38441;52.894;6.040;2023-04-01T04:01:32;11.00;99.90
52531;DHT22;38441;52.894;6.040;2023-04-01T04:03:58;9.70;99.90
52531;DHT22;38441;52.894;6.040;2023-04-01T04:06:25;9.50;99.90
52531;DHT22;38441;52.894;6.040;2023-04-01T04:08:51;10.20;99.90
52531;DHT22;38441;52.894;6.040;2023-04-01T04:11:17;9.40;99.90
52531;DHT22;38441;52.894;6.040;2023-04-01T04:13:43;9.80;99.90
52531;DHT22;38441;52.894;6.040;2023-04-01T04:16:10;10.50;99.90
52531;DHT22;38441;52.894;6.040;2023-04-01T04:18:36;9.00;99.90
52531;DHT22;38441;52.894;6.040;2023-04-01T04:21:02;9.50;99.90
52531;DHT22;38441;52.894;6.040;2023-04-01T04:23:27;9.70;99.90
52531;DHT22;38441;52.894;6.040;2023-04-01T04:26:01;8.90;99.90
52531;DHT22;38441;52.894;6.040;2023-04-01T04:28:28;9.70;99.90
52531;DHT22;38441;52.894;6.040;2023-04-01T04:30:54;9.60;99.90
52531;DHT22;38441;52.894;6.040;2023-04-01T04:33:20;9.60;99.90
52531;DHT22;38441;52.894;6.040;2023-04-01T04:35:46;8.70;99.90
52531;DHT22;38441;52.894;6.040;2023-04-01T04:38:11;8.60;99.90
52531;DHT22;38441;52.894;6.040;2023-04-01T04:40:38;10.50;99.90
52531;DHT22;38441;52.894;6.040;2023-04-01T04:43:04;8.90;99.90
52531;DHT22;38441;52.894;6.040;2023-04-01T04:45:30;9.00;99.90
52531;DHT22;38441;52.894;6.040;2023-04-01T04:47:56;8.80;99.90
52531;DHT22;38441;52.894;6.040;2023-04-01T04:50:22;9.70;99.90
52531;DHT22;38441;52.894;6.040;2023-04-01T04:52:48;9.70;99.90
52531;DHT22;38441;52.894;6.040;2023-04-01T04:55:14;10.00;99.90
52531;DHT22;38441;52.894;6.040;2023-04-01T04:57:40;9.80;99.90
52531;DHT22;38441;52.894;6.040;2023-04-01T05:00:07;11.00;99.90
52531;DHT22;38441;52.894;6.040;2023-04-01T05:02:33;9.70;99.90
52531;DHT22;38441;52.894;6.040;2023-04-01T05:04:58;8.70;99.90
52531;DHT22;38441;52.894;6.040;2023-04-01T05:07:24;8.40;99.90
52531;DHT22;38441;52.894;6.040;2023-04-01T05:09:50;9.70;99.90
52531;DHT22;38441;52.894;6.040;2023-04-01T05:12:15;10.60;99.90
52531;DHT22;38441;52.894;6.040;2023-04-01T05:14:41;8.90;99.90
52531;DHT22;38441;52.894;6.040;2023-04-01T05:17:13;8.80;99.90
52531;DHT22;38441;52.894;6.040;2023-04-01T05:19:39;9.80;99.90
52531;DHT22;38441;52.894;6.040;2023-04-01T05:22:05;10.80;99.90
52531;DHT22;38441;52.894;6.040;2023-04-01T05:24:31;9.20;99.90
52531;DHT22;38441;52.894;6.040;2023-04-01T05:26:57;10.70;99.90
52531;DHT22;38441;52.894;6.040;2023-04-01T05:29:24;10.50;99.90
52531;DHT22;38441;52.894;6.040;2023-04-01T05:31:50;9.60;99.90
52531;DHT22;38441;52.894;6.040;2023-04-01T05:34:15;9.30;99.90
52531;DHT22;38441;52.894;6.040;2023-04-01T05:36:42;10.70;99.90
52531;DHT22;38441;52.894;6.040;2023-04-01T05:39:08;10.30;99.90
52531;DHT22;38441;52.894;6.040;2023-04-01T05:41:37;11.70;99.90
52531;DHT22;38441;52.894;6.040;2023-04-01T05:44:04;9.80;99.90
52531;DHT22;38441;52.894;6.040;2023-04-01T05:46:31;9.90;99.90
52531;DHT22;38441;52.894;6.040;2023-04-01T05:48:57;9.70;99.90
52531;DHT22;38441;52.894;6.040;2023-04-01T05:51:22;10.60;99.90
52531;DHT22;38441;52.894;6.040;2023-04-01T05:53:48;10.80;99.90
52531;DHT22;38441;52.894;6.040;2023-04-01T05:56:14;9.00;99.90
52531;DHT22;38441;52.894;6.040;2023-04-01T05:58:40;9.70;99.90
52531;DHT22;38441;52.894;6.040;2023-04-01T06:01:10;9.80;99.90
52531;DHT22;38441;52.894;6.040;2023-04-01T06:03:36;9.40;99.90
52531;DHT22;38441;52.894;6.040;2023-04-01T06:06:02;10.70;99.90
52531;DHT22;38441;52.894;6.040;2023-04-01T06:08:30;9.90;99.90
52531;DHT22;38441;52.894;6.040;2023-04-01T06:13:53;9.80;99.90
52531;DHT22;38441;52.894;6.040;2023-04-01T06:16:56;9.90;99.90
52531;DHT22;38441;52.894;6.040;2023-04-01T06:19:41;10.00;99.90
52531;DHT22;38441;52.894;6.040;2023-04-01T06:30:43;9.80;99.90
52531;DHT22;38441;52.894;6.040;2023-04-01T06:42:28;10.00;99.90
52531;DHT22;38441;52.894;6.040;2023-04-01T06:45:14;10.00;99.90
52531;DHT22;38441;52.894;6.040;2023-04-01T06:53:59;10.20;99.90
52531;DHT22;38441;52.894;6.040;2023-04-01T06:56:28;10.10;99.90
52531;DHT22;38441;52.894;6.040;2023-04-01T06:59:12;11.40;99.90
52531;DHT22;38441;52.894;6.040;2023-04-01T07:01:57;10.90;99.90
52531;DHT22;38441;52.894;6.040;2023-04-01T07:04:29;9.80;99.90
52531;DHT22;38441;52.894;6.040;2023-04-01T07:07:02;8.90;99.90
52531;DHT22;38441;52.894;6.040;2023-04-01T07:09:33;11.30;99.90
52531;DHT22;38441;52.894;6.040;2023-04-01T07:12:07;10.00;99.90
52531;DHT22;38441;52.894;6.040;2023-04-01T07:14:37;8.70;99.90
52531;DHT22;38441;52.894;6.040;2023-04-01T07:17:15;10.20;99.90
52531;DHT22;38441;52.894;6.040;2023-04-01T07:22:29;10.10;99.90
52531;DHT22;38441;52.894;6.040;2023-04-01T07:24:59;11.80;99.90
52531;DHT22;38441;52.894;6.040;2023-04-01T07:27:26;9.80;99.90
52531;DHT22;38441;52.894;6.040;2023-04-01T07:29:55;10.90;99.90
52531;DHT22;38441;52.894;6.040;2023-04-01T07:32:56;11.20;99.90
52531;DHT22;38441;52.894;6.040;2023-04-01T07:35:38;9.60;99.90
52531;DHT22;38441;52.894;6.040;2023-04-01T07:41:04;10.60;99.90
52531;DHT22;38441;52.894;6.040;2023-04-01T07:46:43;10.10;99.90
52531;DHT22;38441;52.894;6.040;2023-04-01T07:52:00;10.20;99.90
52531;DHT22;38441;52.894;6.040;2023-04-01T07:54:52;11.30;99.90
52531;DHT22;38441;52.894;6.040;2023-04-01T07:57:23;10.10;99.90
52531;DHT22;38441;52.894;6.040;2023-04-01T08:05:49;12.00;99.90
52531;DHT22;38441;52.894;6.040;2023-04-01T08:16:26;10.20;99.90
52531;DHT22;38441;52.894;6.040;2023-04-01T08:21:41;10.20;99.90
52531;DHT22;38441;52.894;6.040;2023-04-01T08:24:38;12.40;99.90
52531;DHT22;38441;52.894;6.040;2023-04-01T08:27:12;10.10;99.90
52531;DHT22;38441;52.894;6.040;2023-04-01T08:29:48;11.60;99.90
52531;DHT22;38441;52.894;6.040;2023-04-01T08:32:18;11.00;99.90
52531;DHT22;38441;52.894;6.040;2023-04-01T08:34:53;12.50;99.90
52531;DHT22;38441;52.894;6.040;2023-04-01T08:37:25;9.60;99.90
52531;DHT22;38441;52.894;6.040;2023-04-01T08:39:55;9.30;99.90
52531;DHT22;38441;52.894;6.040;2023-04-01T08:42:52;12.10;99.90
52531;DHT22;38441;52.894;6.040;2023-04-01T08:56:40;10.40;99.90
52531;DHT22;38441;52.894;6.040;2023-04-01T08:59:32;10.60;99.90
52531;DHT22;38441;52.894;6.040;2023-04-01T09:02:32;11.00;99.90
52531;DHT22;38441;52.894;6.040;2023-04-01T09:08:14;10.30;99.90
52531;DHT22;38441;52.894;6.040;2023-04-01T09:11:15;10.50;99.90
52531;DHT22;38441;52.894;6.040;2023-04-01T09:19:41;10.50;99.90
52531;DHT22;38441;52.894;6.040;2023-04-01T09:27:56;10.50;99.90
52531;DHT22;38441;52.894;6.040;2023-04-01T09:38:58;10.40;99.90
52531;DHT22;38441;52.894;6.040;2023-04-01T09:41:32;10.50;99.90
52531;DHT22;38441;52.894;6.040;2023-04-01T09:44:20;10.40;99.90
52531;DHT22;38441;52.894;6.040;2023-04-01T09:47:26;11.30;99.90
52531;DHT22;38441;52.894;6.040;2023-04-01T09:50:09;10.60;99.90
52531;DHT22;38441;52.894;6.040;2023-04-01T09:52:50;10.30;99.90
52531;DHT22;38441;52.894;6.040;2023-04-01T10:01:10;10.70;99.90
52531;DHT22;38441;52.894;6.040;2023-04-01T10:04:09;10.60;99.90
52531;DHT22;38441;52.894;6.040;2023-04-01T10:12:38;10.60;99.90
52531;DHT22;38441;52.894;6.040;2023-04-01T10:27:12;10.90;99.90
52531;DHT22;38441;52.894;6.040;2023-04-01T10:46:24;10.60;99.90
52531;DHT22;38441;52.894;6.040;2023-04-01T10:55:18;11.70;99.90
52531;DHT22;38441;52.894;6.040;2023-04-01T10:58:18;11.40;99.90
52531;DHT22;38441;52.894;6.040;2023-04-01T11:01:11;9.50;99.90
52531;DHT22;38441;52.894;6.040;2023-04-01T11:04:02;11.70;99.90
52531;DHT22;38441;52.894;6.040;2023-04-01T11:06:51;11.00;99.90
52531;DHT22;38441;52.894;6.040;2023-04-01T11:25:56;9.10;99.90
52531;DHT22;38441;52.894;6.040;2023-04-01T11:34:03;10.80;99.90
52531;DHT22;38441;52.894;6.040;2023-04-01T12:05:11;10.70;99.90
52531;DHT22;38441;52.894;6.040;2023-04-01T12:13:16;10.50;99.90
52531;DHT22;38441;52.894;6.040;2023-04-01T12:16:07;9.00;99.90
52531;DHT22;38441;52.894;6.040;2023-04-01T12:18:58;11.90;99.90
52531;DHT22;38441;52.894;6.040;2023-04-01T12:24:21;10.40;99.90
52531;DHT22;38441;52.894;6.040;2023-04-01T12:35:18;9.10;99.90
52531;DHT22;38441;52.894;6.040;2023-04-01T12:38:10;10.50;99.90
52531;DHT22;38441;52.894;6.040;2023-04-01T12:40:56;10.70;99.90
52531;DHT22;38441;52.894;6.040;2023-04-01T12:44:44;10.40;99.90
52531;DHT22;38441;52.894;6.040;2023-04-01T12:52:35;10.50;99.90
52531;DHT22;38441;52.894;6.040;2023-04-01T12:55:18;12.60;99.90
52531;DHT22;38441;52.894;6.040;2023-04-01T12:57:57;9.70;99.90
52531;DHT22;38441;52.894;6.040;2023-04-01T13:06:30;11.90;99.90
52531;DHT22;38441;52.894;6.040;2023-04-01T13:09:13;10.50;99.90
52531;DHT22;38441;52.894;6.040;2023-04-01T13:14:48;10.80;99.90
52531;DHT22;38441;52.894;6.040;2023-04-01T13:17:36;9.20;99.90
52531;DHT22;38441;52.894;6.040;2023-04-01T13:20:15;9.90;99.90
52531;DHT22;38441;52.894;6.040;2023-04-01T13:28:44;12.00;99.90
52531;DHT22;38441;52.894;6.040;2023-04-01T13:39:38;11.30;99.90
52531;DHT22;38441;52.894;6.040;2023-04-01T13:45:15;10.40;99.90
52531;DHT22;38441;52.894;6.040;2023-04-01T13:56:48;13.10;99.90
52531;DHT22;38441;52.894;6.040;2023-04-01T13:59:45;10.90;99.90
52531;DHT22;38441;52.894;6.040;2023-04-01T14:10:43;8.10;99.90
52531;DHT22;38441;52.894;6.040;2023-04-01T14:13:26;10.50;99.90
52531;DHT22;38441;52.894;6.040;2023-04-01T14:19:11;10.50;99.90
52531;DHT22;38441;52.894;6.040;2023-04-01T14:29:59;10.10;99.90
52531;DHT22;38441;52.894;6.040;2023-04-01T14:38:47;12.50;99.90
52531;DHT22;38441;52.894;6.040;2023-04-01T14:52:17;10.00;99.90
52531;DHT22;38441;52.894;6.040;2023-04-01T14:54:56;9.50;99.90
52531;DHT22;38441;52.894;6.040;2023-04-01T15:17:05;9.40;99.90
52531;DHT22;38441;52.894;6.040;2023-04-01T15:23:01;9.40;99.90
52531;DHT22;38441;52.894;6.040;2023-04-01T15:26:02;8.10;99.90
52531;DHT22;38441;52.894;6.040;2023-04-01T15:28:49;9.30;99.90
52531;DHT22;38441;52.894;6.040;2023-04-01T15:31:49;9.30;99.90
52531;DHT22;38441;52.894;6.040;2023-04-01T15:34:32;9.20;99.90
52531;DHT22;38441;52.894;6.040;2023-04-01T15:40:11;9.40;99.90
52531;DHT22;38441;52.894;6.040;2023-04-01T15:49:01;9.50;99.90
52531;DHT22;38441;52.894;6.040;2023-04-01T15:57:20;9.20;99.90
52531;DHT22;38441;52.894;6.040;2023-04-01T15:59:58;9.20;99.90
52531;DHT22;38441;52.894;6.040;2023-04-01T16:08:03;9.20;99.90
52531;DHT22;38441;52.894;6.040;2023-04-01T16:10:46;9.20;99.90
52531;DHT22;38441;52.894;6.040;2023-04-01T16:21:52;8.90;99.90
52531;DHT22;38441;52.894;6.040;2023-04-01T16:24:45;8.90;99.90
52531;DHT22;38441;52.894;6.040;2023-04-01T16:27:26;8.70;99.90
52531;DHT22;38441;52.894;6.040;2023-04-01T16:30:00;8.70;99.90
52531;DHT22;38441;52.894;6.040;2023-04-01T16:32:53;8.70;99.90
52531;DHT22;38441;52.894;6.040;2023-04-01T16:35:31;8.70;99.90
52531;DHT22;38441;52.894;6.040;2023-04-01T16:38:18;8.60;99.90
52531;DHT22;38441;52.894;6.040;2023-04-01T16:43:43;8.70;99.90
52531;DHT22;38441;52.894;6.040;2023-04-01T16:54:35;8.70;99.90
52531;DHT22;38441;52.894;6.040;2023-04-01T16:57:19;8.50;99.90
52531;DHT22;38441;52.894;6.040;2023-04-01T17:02:38;8.40;99.90
52531;DHT22;38441;52.894;6.040;2023-04-01T17:05:11;8.40;99.90
52531;DHT22;38441;52.894;6.040;2023-04-01T17:10:33;8.40;99.90
52531;DHT22;38441;52.894;6.040;2023-04-01T17:18:23;8.30;99.90
52531;DHT22;38441;52.894;6.040;2023-04-01T17:21:13;8.20;99.90
52531;DHT22;38441;52.894;6.040;2023-04-01T17:23:45;8.20;99.90
52531;DHT22;38441;52.894;6.040;2023-04-01T17:26:50;8.10;99.90
52531;DHT22;38441;52.894;6.040;2023-04-01T17:32:02;8.20;99.90
52531;DHT22;38441;52.894;6.040;2023-04-01T17:34:57;8.10;99.90
52531;DHT22;38441;52.894;6.040;2023-04-01T17:43:29;8.10;99.90
52531;DHT22;38441;52.894;6.040;2023-04-01T17:46:09;8.00;99.90
52531;DHT22;38441;52.894;6.040;2023-04-01T17:49:02;8.10;99.90
52531;DHT22;38441;52.894;6.040;2023-04-01T17:54:54;7.90;99.90
52531;DHT22;38441;52.894;6.040;2023-04-01T18:00:14;7.90;99.90
52531;DHT22;38441;52.894;6.040;2023-04-01T18:11:38;7.60;99.90
52531;DHT22;38441;52.894;6.040;2023-04-01T18:17:17;7.80;99.90
52531;DHT22;38441;52.894;6.040;2023-04-01T18:20:11;7.60;99.90
52531;DHT22;38441;52.894;6.040;2023-04-01T18:22:44;7.60;99.90
52531;DHT22;38441;52.894;6.040;2023-04-01T18:25:36;7.60;99.90
52531;DHT22;38441;52.894;6.040;2023-04-01T18:30:59;7.50;99.90
52531;DHT22;38441;52.894;6.040;2023-04-01T18:36:26;7.50;99.90
52531;DHT22;38441;52.894;6.040;2023-04-01T18:39:03;7.20;99.90
52531;DHT22;38441;52.894;6.040;2023-04-01T18:44:36;7.30;99.90
52531;DHT22;38441;52.894;6.040;2023-04-01T18:47:19;7.20;99.90
52531;DHT22;38441;52.894;6.040;2023-04-01T18:50:13;7.10;99.90
52531;DHT22;38441;52.894;6.040;2023-04-01T18:52:44;7.20;99.90
52531;DHT22;38441;52.894;6.040;2023-04-01T18:57:55;7.10;99.90
52531;DHT22;38441;52.894;6.040;2023-04-01T19:00:38;7.10;99.90
52531;DHT22;38441;52.894;6.040;2023-04-01T19:06:43;7.10;99.90
52531;DHT22;38441;52.894;6.040;2023-04-01T19:09:21;7.10;99.90
52531;DHT22;38441;52.894;6.040;2023-04-01T19:11:56;7.20;99.90
52531;DHT22;38441;52.894;6.040;2023-04-01T19:25:02;7.00;99.90
52531;DHT22;38441;52.894;6.040;2023-04-01T19:27:42;7.00;99.90
52531;DHT22;38441;52.894;6.040;2023-04-01T19:30:27;7.00;99.90
52531;DHT22;38441;52.894;6.040;2023-04-01T19:35:47;7.00;99.90
52531;DHT22;38441;52.894;6.040;2023-04-01T19:38:38;6.90;99.90
52531;DHT22;38441;52.894;6.040;2023-04-01T19:41:21;7.00;99.90
52531;DHT22;38441;52.894;6.040;2023-04-01T19:44:12;7.00;99.90
52531;DHT22;38441;52.894;6.040;2023-04-01T19:46:51;6.90;99.90
52531;DHT22;38441;52.894;6.040;2023-04-01T19:52:39;6.90;99.90
52531;DHT22;38441;52.894;6.040;2023-04-01T19:55:36;6.90;99.90
52531;DHT22;38441;52.894;6.040;2023-04-01T20:01:26;6.90;99.90
52531;DHT22;38441;52.894;6.040;2023-04-01T20:04:08;7.00;99.90
52531;DHT22;38441;52.894;6.040;2023-04-01T20:12:20;6.80;99.90
52531;DHT22;38441;52.894;6.040;2023-04-01T20:14:53;6.80;99.90
52531;DHT22;38441;52.894;6.040;2023-04-01T20:17:43;6.70;99.90
52531;DHT22;38441;52.894;6.040;2023-04-01T20:39:04;6.70;99.90
52531;DHT22;38441;52.894;6.040;2023-04-01T20:44:50;6.50;99.90
52531;DHT22;38441;52.894;6.040;2023-04-01T20:58:27;6.50;99.90
52531;DHT22;38441;52.894;6.040;2023-04-01T21:06:49;6.20;99.90
52531;DHT22;38441;52.894;6.040;2023-04-01T21:09:30;6.20;99.90
52531;DHT22;38441;52.894;6.040;2023-04-01T21:18:04;6.20;99.90
52531;DHT22;38441;52.894;6.040;2023-04-01T21:25:39;6.20;99.90
52531;DHT22;38441;52.894;6.040;2023-04-01T21:28:25;6.20;99.90
52531;DHT22;38441;52.894;6.040;2023-04-01T21:31:15;6.20;99.90
52531;DHT22;38441;52.894;6.040;2023-04-01T21:36:35;6.20;99.90
52531;DHT22;38441;52.894;6.040;2023-04-01T22:10:53;6.00;99.90
52531;DHT22;38441;52.894;6.040;2023-04-01T22:15:52;6.00;99.90
52531;DHT22;38441;52.894;6.040;2023-04-01T22:18:50;6.00;99.90
52531;DHT22;38441;52.894;6.040;2023-04-01T22:21:29;6.00;99.90
52531;DHT22;38441;52.894;6.040;2023-04-01T22:29:35;6.10;99.90
52531;DHT22;38441;52.894;6.040;2023-04-01T22:32:08;6.30;99.90
52531;DHT22;38441;52.894;6.040;2023-04-01T22:37:19;5.90;99.90
52531;DHT22;38441;52.894;6.040;2023-04-01T22:45:10;5.80;99.90
52531;DHT22;38441;52.894;6.040;2023-04-01T22:55:40;5.80;99.90
52531;DHT22;38441;52.894;6.040;2023-04-01T22:58:14;5.90;99.90
52531;DHT22;38441;52.894;6.040;2023-04-01T23:00:47;5.90;99.90
52531;DHT22;38441;52.894;6.040;2023-04-01T23:06:35;6.00;99.90
52531;DHT22;38441;52.894;6.040;2023-04-01T23:09:20;5.80;99.90
52531;DHT22;38441;52.894;6.040;2023-04-01T23:11:57;5.80;99.90
52531;DHT22;38441;52.894;6.040;2023-04-01T23:24:44;5.90;99.90
52531;DHT22;38441;52.894;6.040;2023-04-01T23:34:57;5.70;99.90
52531;DHT22;38441;52.894;6.040;2023-04-01T23:39:59;5.60;99.90
52531;DHT22;38441;52.894;6.040;2023-04-01T23:42:29;5.70;99.90
52531;DHT22;38441;52.894;6.040;2023-04-01T23:45:18;5.60;99.90
52531;DHT22;38441;52.894;6.040;2023-04-01T23:47:46;5.60;99.90
52531;DHT22;38441;52.894;6.040;2023-04-01T23:50:24;5.40;99.90
52531;DHT22;38441;52.894;6.040;2023-04-01T23:53:11;5.50;99.90
